This is the latest recevied weather packets stored in our database for station/object OE7SBH-WX. If no packets are shown the sender has not sent any weather packets the latest 10 day(s).
| Time | Temp. | Humidity | Pressure | Rain* | Wind** | Luminosity | Snow |
|---|---|---|---|---|---|---|---|
| 1777505729 | 7.78° C | 67% | 1029 hPa | 0 mm | - | 0 W/m² | - |
| 1777503930 | 7.78° C | 67% | 1028.8 hPa | 0 mm | - | 0 W/m² | - |
| 1777502733 | 7.78° C | 70% | 1028.7 hPa | 0 mm | - | 0 W/m² | - |
| 1777500348 | 9.44° C | 60% | 1028.3 hPa | 0 mm | - | 0 W/m² | - |
| 1777497925 | 10.56° C | 54% | 1028.1 hPa | 0 mm | - | 0 W/m² | - |
| 1777496751 | 11.11° C | 51% | 1028 hPa | 0 mm | - | 0 W/m² | - |
| 1777493128 | 12.22° C | 50% | 1027.4 hPa | 0 mm | - | 0 W/m² | - |
| 1777492535 | 12.78° C | 48% | 1027.3 hPa | 0 mm | - | 0 W/m² | - |
| 1777489528 | 13.33° C | 47% | 1026.6 hPa | 0 mm | - | 0 W/m² | - |
| 1777488927 | 13.89° C | 47% | 1026.4 hPa | 0 mm | - | 0 W/m² | - |
| 1777485934 | 14.44° C | 49% | 1025.5 hPa | 0 mm | - | 9 W/m² | - |
| 1777485333 | 14.44° C | 49% | 1025.3 hPa | 0 mm | - | 14 W/m² | - |
| 1777480516 | 16.67° C | 48% | 1024 hPa | 0 mm | - | 122 W/m² | - |
| 1777478132 | 16.67° C | 48% | 1023.9 hPa | 0 mm | - | 83 W/m² | - |
| 1777471531 | 18.33° C | 50% | 1023.5 hPa | 0 mm | - | 189 W/m² | - |
| 1777470331 | 18.33° C | 51% | 1023.5 hPa | 0 mm | - | 539 W/m² | - |
| 1777467934 | 17.22° C | 56% | 1023.7 hPa | 0 mm | - | 606 W/m² | - |
| 1777460732 | 13.89° C | 67% | 1024.9 hPa | 0 mm | - | 349 W/m² | - |
| 1777456521 | 12.78° C | 70% | 1025.2 hPa | 0 mm | - | 307 W/m² | - |
| 1777455950 | 13.33° C | 68% | 1025.2 hPa | 0 mm | - | 290 W/m² | - |
| 1777453574 | 12.22° C | 71% | 1025.4 hPa | 0 mm | - | 242 W/m² | - |
| 1777450520 | 11.67° C | 73% | 1025.6 hPa | 0 mm | - | 160 W/m² | - |
| 1777447533 | 11.11° C | 75% | 1025.2 hPa | 0 mm | - | 145 W/m² | - |
| 1777446940 | 10.56° C | 75% | 1025.2 hPa | 0 mm | - | 115 W/m² | - |
| 1777444526 | 10.56° C | 78% | 1024.9 hPa | 0 mm | - | 54 W/m² | - |
* Rain latest hour (hover to see other rain measurements)
** Current wind speed in m/s (hover to see current wind gust speed)